sensor_id;sensor_type;location;lat;lon;timestamp;P1;durP1;ratioP1;P2;durP2;ratioP2
77350;SDS011;66420;50.246;14.320;2023-02-03T00:00:04;10.43;;;3.83;;
77350;SDS011;66420;50.246;14.320;2023-02-03T00:02:50;7.97;;;2.88;;
77350;SDS011;66420;50.246;14.320;2023-02-03T00:05:34;9.82;;;3.25;;
77350;SDS011;66420;50.246;14.320;2023-02-03T00:08:20;8.70;;;3.00;;
77350;SDS011;66420;50.246;14.320;2023-02-03T00:11:06;5.85;;;3.20;;
77350;SDS011;66420;50.246;14.320;2023-02-03T00:13:51;7.57;;;3.03;;
77350;SDS011;66420;50.246;14.320;2023-02-03T00:16:36;7.60;;;2.60;;
77350;SDS011;66420;50.246;14.320;2023-02-03T00:19:20;8.02;;;2.58;;
77350;SDS011;66420;50.246;14.320;2023-02-03T00:22:04;12.57;;;2.88;;
77350;SDS011;66420;50.246;14.320;2023-02-03T00:24:49;10.65;;;3.00;;
77350;SDS011;66420;50.246;14.320;2023-02-03T00:27:33;8.02;;;2.90;;
77350;SDS011;66420;50.246;14.320;2023-02-03T00:30:18;10.18;;;3.00;;
77350;SDS011;66420;50.246;14.320;2023-02-03T00:33:03;10.10;;;2.65;;
77350;SDS011;66420;50.246;14.320;2023-02-03T00:35:48;9.68;;;2.88;;
77350;SDS011;66420;50.246;14.320;2023-02-03T00:38:33;9.23;;;2.83;;
77350;SDS011;66420;50.246;14.320;2023-02-03T00:41:17;6.35;;;2.40;;
77350;SDS011;66420;50.246;14.320;2023-02-03T00:44:03;11.63;;;2.35;;
77350;SDS011;66420;50.246;14.320;2023-02-03T00:46:48;5.25;;;2.22;;
77350;SDS011;66420;50.246;14.320;2023-02-03T00:49:33;10.23;;;2.60;;
77350;SDS011;66420;50.246;14.320;2023-02-03T00:52:17;9.30;;;2.53;;
77350;SDS011;66420;50.246;14.320;2023-02-03T00:55:02;5.72;;;1.73;;
77350;SDS011;66420;50.246;14.320;2023-02-03T00:57:47;4.32;;;2.15;;
77350;SDS011;66420;50.246;14.320;2023-02-03T01:00:31;10.88;;;3.10;;
77350;SDS011;66420;50.246;14.320;2023-02-03T01:03:16;8.25;;;3.03;;
77350;SDS011;66420;50.246;14.320;2023-02-03T01:06:14;4.88;;;1.98;;
77350;SDS011;66420;50.246;14.320;2023-02-03T01:09:01;5.82;;;1.63;;
77350;SDS011;66420;50.246;14.320;2023-02-03T01:11:47;9.52;;;2.40;;
77350;SDS011;66420;50.246;14.320;2023-02-03T01:14:31;8.30;;;2.20;;
77350;SDS011;66420;50.246;14.320;2023-02-03T01:17:16;4.88;;;1.65;;
77350;SDS011;66420;50.246;14.320;2023-02-03T01:20:01;8.27;;;2.58;;
77350;SDS011;66420;50.246;14.320;2023-02-03T01:22:46;10.60;;;2.60;;
77350;SDS011;66420;50.246;14.320;2023-02-03T01:25:33;9.02;;;2.42;;
77350;SDS011;66420;50.246;14.320;2023-02-03T01:28:18;10.82;;;2.78;;
77350;SDS011;66420;50.246;14.320;2023-02-03T01:31:23;7.30;;;2.63;;
77350;SDS011;66420;50.246;14.320;2023-02-03T01:34:10;15.02;;;2.42;;
77350;SDS011;66420;50.246;14.320;2023-02-03T01:36:57;9.20;;;3.17;;
77350;SDS011;66420;50.246;14.320;2023-02-03T01:39:41;7.05;;;2.90;;
77350;SDS011;66420;50.246;14.320;2023-02-03T01:42:26;8.13;;;2.75;;
77350;SDS011;66420;50.246;14.320;2023-02-03T01:45:15;8.82;;;2.70;;
77350;SDS011;66420;50.246;14.320;2023-02-03T01:48:02;8.60;;;3.08;;
77350;SDS011;66420;50.246;14.320;2023-02-03T01:50:48;4.55;;;2.13;;
77350;SDS011;66420;50.246;14.320;2023-02-03T01:53:33;6.38;;;3.33;;
77350;SDS011;66420;50.246;14.320;2023-02-03T01:56:18;9.38;;;3.25;;
77350;SDS011;66420;50.246;14.320;2023-02-03T01:59:03;2.80;;;1.80;;
77350;SDS011;66420;50.246;14.320;2023-02-03T02:01:49;8.10;;;1.95;;
77350;SDS011;66420;50.246;14.320;2023-02-03T02:04:38;5.88;;;2.42;;
77350;SDS011;66420;50.246;14.320;2023-02-03T02:07:34;9.75;;;4.18;;
77350;SDS011;66420;50.246;14.320;2023-02-03T02:10:21;11.57;;;4.40;;
77350;SDS011;66420;50.246;14.320;2023-02-03T02:13:05;10.52;;;4.10;;
77350;SDS011;66420;50.246;14.320;2023-02-03T02:25:03;9.20;;;4.40;;
77350;SDS011;66420;50.246;14.320;2023-02-03T02:28:04;9.38;;;4.45;;
77350;SDS011;66420;50.246;14.320;2023-02-03T02:37:31;6.43;;;3.15;;
77350;SDS011;66420;50.246;14.320;2023-02-03T02:40:36;10.43;;;3.95;;
77350;SDS011;66420;50.246;14.320;2023-02-03T02:43:41;8.90;;;4.50;;
77350;SDS011;66420;50.246;14.320;2023-02-03T02:46:38;9.10;;;4.55;;
77350;SDS011;66420;50.246;14.320;2023-02-03T02:52:26;5.45;;;3.03;;
77350;SDS011;66420;50.246;14.320;2023-02-03T02:55:19;10.15;;;3.83;;
77350;SDS011;66420;50.246;14.320;2023-02-03T02:58:11;4.90;;;3.00;;
77350;SDS011;66420;50.246;14.320;2023-02-03T03:00:59;8.15;;;3.80;;
77350;SDS011;66420;50.246;14.320;2023-02-03T03:03:44;5.97;;;3.10;;
77350;SDS011;66420;50.246;14.320;2023-02-03T03:06:30;5.22;;;2.95;;
77350;SDS011;66420;50.246;14.320;2023-02-03T03:09:24;7.35;;;4.03;;
77350;SDS011;66420;50.246;14.320;2023-02-03T03:12:46;7.85;;;3.67;;
77350;SDS011;66420;50.246;14.320;2023-02-03T03:15:35;5.22;;;2.63;;
77350;SDS011;66420;50.246;14.320;2023-02-03T03:18:24;7.85;;;4.28;;
77350;SDS011;66420;50.246;14.320;2023-02-03T03:21:15;7.43;;;3.78;;
77350;SDS011;66420;50.246;14.320;2023-02-03T03:24:09;6.20;;;3.60;;
77350;SDS011;66420;50.246;14.320;2023-02-03T03:29:51;6.38;;;3.88;;
77350;SDS011;66420;50.246;14.320;2023-02-03T03:32:39;9.00;;;4.40;;
77350;SDS011;66420;50.246;14.320;2023-02-03T03:35:27;8.10;;;4.05;;
77350;SDS011;66420;50.246;14.320;2023-02-03T03:38:29;7.10;;;2.88;;
77350;SDS011;66420;50.246;14.320;2023-02-03T03:44:20;5.75;;;3.78;;
77350;SDS011;66420;50.246;14.320;2023-02-03T03:47:13;3.83;;;1.65;;
77350;SDS011;66420;50.246;14.320;2023-02-03T03:50:02;3.83;;;2.70;;
77350;SDS011;66420;50.246;14.320;2023-02-03T03:52:50;6.85;;;3.83;;
77350;SDS011;66420;50.246;14.320;2023-02-03T03:55:38;7.90;;;3.15;;
77350;SDS011;66420;50.246;14.320;2023-02-03T03:58:25;8.57;;;4.00;;
77350;SDS011;66420;50.246;14.320;2023-02-03T04:01:13;6.65;;;3.17;;
77350;SDS011;66420;50.246;14.320;2023-02-03T04:03:59;5.95;;;3.50;;
77350;SDS011;66420;50.246;14.320;2023-02-03T04:06:51;4.18;;;2.78;;
77350;SDS011;66420;50.246;14.320;2023-02-03T04:09:37;7.18;;;3.75;;
77350;SDS011;66420;50.246;14.320;2023-02-03T04:12:23;6.75;;;3.83;;
77350;SDS011;66420;50.246;14.320;2023-02-03T04:15:08;6.88;;;3.63;;
77350;SDS011;66420;50.246;14.320;2023-02-03T04:17:53;6.38;;;2.08;;
77350;SDS011;66420;50.246;14.320;2023-02-03T04:20:40;6.28;;;3.90;;
77350;SDS011;66420;50.246;14.320;2023-02-03T04:23:25;3.20;;;1.73;;
77350;SDS011;66420;50.246;14.320;2023-02-03T04:26:09;4.70;;;2.75;;
77350;SDS011;66420;50.246;14.320;2023-02-03T04:28:54;5.68;;;3.20;;
77350;SDS011;66420;50.246;14.320;2023-02-03T04:31:38;3.42;;;2.47;;
77350;SDS011;66420;50.246;14.320;2023-02-03T04:34:23;3.13;;;2.22;;
77350;SDS011;66420;50.246;14.320;2023-02-03T04:37:08;3.63;;;2.20;;
77350;SDS011;66420;50.246;14.320;2023-02-03T04:39:53;3.03;;;1.65;;
77350;SDS011;66420;50.246;14.320;2023-02-03T04:42:39;1.77;;;0.95;;
77350;SDS011;66420;50.246;14.320;2023-02-03T04:45:24;3.45;;;2.03;;
77350;SDS011;66420;50.246;14.320;2023-02-03T04:48:08;3.35;;;2.20;;
77350;SDS011;66420;50.246;14.320;2023-02-03T04:50:53;4.32;;;2.33;;
77350;SDS011;66420;50.246;14.320;2023-02-03T04:53:38;3.63;;;1.98;;
77350;SDS011;66420;50.246;14.320;2023-02-03T04:56:22;3.65;;;2.28;;
77350;SDS011;66420;50.246;14.320;2023-02-03T04:59:07;6.78;;;2.08;;
77350;SDS011;66420;50.246;14.320;2023-02-03T05:01:52;4.07;;;2.35;;
77350;SDS011;66420;50.246;14.320;2023-02-03T05:04:36;2.80;;;1.27;;
77350;SDS011;66420;50.246;14.320;2023-02-03T05:07:21;2.50;;;1.23;;
77350;SDS011;66420;50.246;14.320;2023-02-03T05:10:05;1.17;;;0.82;;
77350;SDS011;66420;50.246;14.320;2023-02-03T05:12:50;3.30;;;1.63;;
77350;SDS011;66420;50.246;14.320;2023-02-03T05:15:35;3.42;;;1.50;;
77350;SDS011;66420;50.246;14.320;2023-02-03T05:18:19;4.00;;;1.60;;
77350;SDS011;66420;50.246;14.320;2023-02-03T05:21:04;1.42;;;0.80;;
77350;SDS011;66420;50.246;14.320;2023-02-03T05:23:49;2.60;;;1.80;;
77350;SDS011;66420;50.246;14.320;2023-02-03T05:26:34;2.53;;;1.70;;
77350;SDS011;66420;50.246;14.320;2023-02-03T05:29:19;4.13;;;2.20;;
77350;SDS011;66420;50.246;14.320;2023-02-03T05:32:03;2.58;;;1.63;;
77350;SDS011;66420;50.246;14.320;2023-02-03T05:34:48;2.75;;;1.65;;
77350;SDS011;66420;50.246;14.320;2023-02-03T05:37:33;2.35;;;1.40;;
77350;SDS011;66420;50.246;14.320;2023-02-03T05:40:17;2.28;;;1.42;;
77350;SDS011;66420;50.246;14.320;2023-02-03T05:43:21;2.17;;;1.30;;
77350;SDS011;66420;50.246;14.320;2023-02-03T05:46:05;2.90;;;1.73;;
77350;SDS011;66420;50.246;14.320;2023-02-03T05:48:51;2.40;;;1.40;;
77350;SDS011;66420;50.246;14.320;2023-02-03T05:51:36;1.98;;;1.33;;
77350;SDS011;66420;50.246;14.320;2023-02-03T05:54:21;2.30;;;1.35;;
77350;SDS011;66420;50.246;14.320;2023-02-03T05:57:06;2.83;;;1.98;;
77350;SDS011;66420;50.246;14.320;2023-02-03T05:59:50;2.35;;;1.42;;
77350;SDS011;66420;50.246;14.320;2023-02-03T06:02:35;2.10;;;1.33;;
77350;SDS011;66420;50.246;14.320;2023-02-03T06:05:19;4.18;;;1.73;;
77350;SDS011;66420;50.246;14.320;2023-02-03T06:08:05;5.28;;;1.85;;
77350;SDS011;66420;50.246;14.320;2023-02-03T06:10:51;2.83;;;1.75;;
77350;SDS011;66420;50.246;14.320;2023-02-03T06:13:35;2.80;;;1.85;;
77350;SDS011;66420;50.246;14.320;2023-02-03T06:16:20;3.53;;;2.33;;
77350;SDS011;66420;50.246;14.320;2023-02-03T06:19:07;3.22;;;2.00;;
77350;SDS011;66420;50.246;14.320;2023-02-03T06:21:52;2.33;;;1.45;;
77350;SDS011;66420;50.246;14.320;2023-02-03T06:24:36;3.03;;;1.67;;
77350;SDS011;66420;50.246;14.320;2023-02-03T06:27:21;2.67;;;1.65;;
77350;SDS011;66420;50.246;14.320;2023-02-03T06:30:06;2.88;;;1.75;;
77350;SDS011;66420;50.246;14.320;2023-02-03T06:32:51;2.97;;;1.45;;
77350;SDS011;66420;50.246;14.320;2023-02-03T06:35:36;2.20;;;1.58;;
77350;SDS011;66420;50.246;14.320;2023-02-03T06:38:20;1.95;;;1.35;;
77350;SDS011;66420;50.246;14.320;2023-02-03T06:41:05;2.80;;;1.60;;
77350;SDS011;66420;50.246;14.320;2023-02-03T06:43:50;2.20;;;1.45;;
77350;SDS011;66420;50.246;14.320;2023-02-03T06:46:35;3.85;;;1.83;;
77350;SDS011;66420;50.246;14.320;2023-02-03T06:49:20;2.85;;;1.77;;
77350;SDS011;66420;50.246;14.320;2023-02-03T06:52:04;3.63;;;1.70;;
77350;SDS011;66420;50.246;14.320;2023-02-03T06:54:49;2.78;;;1.83;;
77350;SDS011;66420;50.246;14.320;2023-02-03T06:57:33;3.15;;;1.92;;
77350;SDS011;66420;50.246;14.320;2023-02-03T07:00:18;2.75;;;1.70;;
77350;SDS011;66420;50.246;14.320;2023-02-03T07:03:03;4.78;;;2.00;;
77350;SDS011;66420;50.246;14.320;2023-02-03T07:05:47;3.65;;;1.73;;
77350;SDS011;66420;50.246;14.320;2023-02-03T07:08:32;3.90;;;1.90;;
77350;SDS011;66420;50.246;14.320;2023-02-03T07:11:17;3.70;;;1.60;;
77350;SDS011;66420;50.246;14.320;2023-02-03T07:14:01;2.72;;;1.80;;
77350;SDS011;66420;50.246;14.320;2023-02-03T07:16:46;4.47;;;1.67;;
77350;SDS011;66420;50.246;14.320;2023-02-03T07:19:31;3.63;;;2.30;;
77350;SDS011;66420;50.246;14.320;2023-02-03T07:22:15;3.15;;;2.00;;
77350;SDS011;66420;50.246;14.320;2023-02-03T07:25:00;3.70;;;1.85;;
77350;SDS011;66420;50.246;14.320;2023-02-03T07:27:45;4.13;;;2.30;;
77350;SDS011;66420;50.246;14.320;2023-02-03T07:30:29;4.28;;;2.03;;
77350;SDS011;66420;50.246;14.320;2023-02-03T07:33:14;2.90;;;1.85;;
77350;SDS011;66420;50.246;14.320;2023-02-03T07:35:59;5.10;;;2.83;;
77350;SDS011;66420;50.246;14.320;2023-02-03T07:38:43;4.03;;;1.45;;
77350;SDS011;66420;50.246;14.320;2023-02-03T07:41:28;4.07;;;2.08;;
77350;SDS011;66420;50.246;14.320;2023-02-03T07:44:12;4.07;;;2.42;;
77350;SDS011;66420;50.246;14.320;2023-02-03T07:46:57;4.32;;;2.50;;
77350;SDS011;66420;50.246;14.320;2023-02-03T07:49:41;5.93;;;2.78;;
77350;SDS011;66420;50.246;14.320;2023-02-03T07:52:26;4.70;;;2.75;;
77350;SDS011;66420;50.246;14.320;2023-02-03T07:55:10;3.53;;;2.40;;
77350;SDS011;66420;50.246;14.320;2023-02-03T07:57:55;5.38;;;2.55;;
77350;SDS011;66420;50.246;14.320;2023-02-03T08:00:40;5.38;;;2.42;;
77350;SDS011;66420;50.246;14.320;2023-02-03T08:03:26;4.80;;;2.17;;
77350;SDS011;66420;50.246;14.320;2023-02-03T08:06:10;3.78;;;2.00;;
77350;SDS011;66420;50.246;14.320;2023-02-03T08:08:54;2.67;;;1.83;;
77350;SDS011;66420;50.246;14.320;2023-02-03T08:11:40;5.15;;;2.50;;
77350;SDS011;66420;50.246;14.320;2023-02-03T08:14:24;6.55;;;2.13;;
77350;SDS011;66420;50.246;14.320;2023-02-03T08:17:09;5.10;;;2.55;;
77350;SDS011;66420;50.246;14.320;2023-02-03T08:19:53;5.22;;;2.13;;
77350;SDS011;66420;50.246;14.320;2023-02-03T08:22:38;3.13;;;1.98;;
77350;SDS011;66420;50.246;14.320;2023-02-03T08:25:22;6.78;;;2.28;;
77350;SDS011;66420;50.246;14.320;2023-02-03T08:28:07;2.72;;;1.77;;
77350;SDS011;66420;50.246;14.320;2023-02-03T08:30:51;3.03;;;1.80;;
77350;SDS011;66420;50.246;14.320;2023-02-03T08:33:36;4.00;;;2.05;;
77350;SDS011;66420;50.246;14.320;2023-02-03T08:36:20;4.10;;;2.00;;
77350;SDS011;66420;50.246;14.320;2023-02-03T08:39:05;3.88;;;2.03;;
77350;SDS011;66420;50.246;14.320;2023-02-03T08:41:50;2.97;;;1.45;;
77350;SDS011;66420;50.246;14.320;2023-02-03T08:44:34;3.88;;;1.45;;
77350;SDS011;66420;50.246;14.320;2023-02-03T08:47:19;7.35;;;2.25;;
77350;SDS011;66420;50.246;14.320;2023-02-03T08:50:05;3.15;;;1.63;;
77350;SDS011;66420;50.246;14.320;2023-02-03T08:52:51;5.85;;;2.22;;
77350;SDS011;66420;50.246;14.320;2023-02-03T08:55:39;5.25;;;2.63;;
77350;SDS011;66420;50.246;14.320;2023-02-03T08:58:23;4.35;;;1.70;;
77350;SDS011;66420;50.246;14.320;2023-02-03T09:01:08;2.92;;;1.67;;
77350;SDS011;66420;50.246;14.320;2023-02-03T09:03:55;2.95;;;1.63;;
77350;SDS011;66420;50.246;14.320;2023-02-03T09:06:40;4.32;;;2.03;;
77350;SDS011;66420;50.246;14.320;2023-02-03T09:09:24;3.25;;;1.40;;
77350;SDS011;66420;50.246;14.320;2023-02-03T09:12:10;2.70;;;1.27;;
77350;SDS011;66420;50.246;14.320;2023-02-03T09:14:56;2.83;;;1.40;;
77350;SDS011;66420;50.246;14.320;2023-02-03T09:17:40;3.53;;;1.63;;
77350;SDS011;66420;50.246;14.320;2023-02-03T09:20:25;3.70;;;2.00;;
77350;SDS011;66420;50.246;14.320;2023-02-03T09:23:09;4.03;;;1.80;;
77350;SDS011;66420;50.246;14.320;2023-02-03T09:25:53;3.22;;;1.55;;
77350;SDS011;66420;50.246;14.320;2023-02-03T09:28:38;2.70;;;1.45;;
77350;SDS011;66420;50.246;14.320;2023-02-03T09:31:23;5.28;;;1.90;;
77350;SDS011;66420;50.246;14.320;2023-02-03T09:34:07;1.83;;;1.02;;
77350;SDS011;66420;50.246;14.320;2023-02-03T09:36:53;2.67;;;1.20;;
77350;SDS011;66420;50.246;14.320;2023-02-03T09:39:37;2.60;;;1.02;;
77350;SDS011;66420;50.246;14.320;2023-02-03T09:42:34;1.02;;;0.70;;
77350;SDS011;66420;50.246;14.320;2023-02-03T09:45:34;1.88;;;1.00;;
77350;SDS011;66420;50.246;14.320;2023-02-03T09:48:22;2.58;;;1.50;;
77350;SDS011;66420;50.246;14.320;2023-02-03T09:57:29;2.50;;;1.10;;
77350;SDS011;66420;50.246;14.320;2023-02-03T10:00:18;1.52;;;0.85;;
77350;SDS011;66420;50.246;14.320;2023-02-03T10:15:42;2.50;;;1.10;;
77350;SDS011;66420;50.246;14.320;2023-02-03T10:18:27;1.88;;;1.00;;
77350;SDS011;66420;50.246;14.320;2023-02-03T10:24:23;1.73;;;0.93;;
77350;SDS011;66420;50.246;14.320;2023-02-03T10:27:15;1.65;;;0.90;;
77350;SDS011;66420;50.246;14.320;2023-02-03T10:33:09;2.88;;;1.17;;
77350;SDS011;66420;50.246;14.320;2023-02-03T10:41:46;1.73;;;0.80;;
77350;SDS011;66420;50.246;14.320;2023-02-03T10:44:45;1.05;;;0.60;;
77350;SDS011;66420;50.246;14.320;2023-02-03T10:47:38;0.77;;;0.60;;
77350;SDS011;66420;50.246;14.320;2023-02-03T10:50:28;1.88;;;0.82;;
77350;SDS011;66420;50.246;14.320;2023-02-03T10:56:07;1.77;;;0.73;;
77350;SDS011;66420;50.246;14.320;2023-02-03T10:58:56;1.35;;;0.80;;
77350;SDS011;66420;50.246;14.320;2023-02-03T11:01:43;1.63;;;0.90;;
77350;SDS011;66420;50.246;14.320;2023-02-03T11:04:31;1.23;;;0.68;;
77350;SDS011;66420;50.246;14.320;2023-02-03T11:07:24;2.13;;;0.80;;
77350;SDS011;66420;50.246;14.320;2023-02-03T11:13:25;3.00;;;1.10;;
77350;SDS011;66420;50.246;14.320;2023-02-03T11:19:04;1.48;;;0.70;;
77350;SDS011;66420;50.246;14.320;2023-02-03T11:21:57;4.95;;;1.33;;
77350;SDS011;66420;50.246;14.320;2023-02-03T11:24:44;2.22;;;1.15;;
77350;SDS011;66420;50.246;14.320;2023-02-03T11:27:29;3.17;;;1.20;;
77350;SDS011;66420;50.246;14.320;2023-02-03T11:30:21;2.03;;;1.02;;
77350;SDS011;66420;50.246;14.320;2023-02-03T11:33:18;1.90;;;1.17;;
77350;SDS011;66420;50.246;14.320;2023-02-03T11:36:08;2.88;;;1.23;;
77350;SDS011;66420;50.246;14.320;2023-02-03T11:39:08;2.70;;;1.00;;
77350;SDS011;66420;50.246;14.320;2023-02-03T11:42:20;2.83;;;1.05;;
77350;SDS011;66420;50.246;14.320;2023-02-03T11:55:04;1.60;;;0.90;;
77350;SDS011;66420;50.246;14.320;2023-02-03T12:26:19;2.28;;;0.80;;
77350;SDS011;66420;50.246;14.320;2023-02-03T12:29:14;1.40;;;0.70;;
77350;SDS011;66420;50.246;14.320;2023-02-03T12:41:12;1.60;;;0.70;;
77350;SDS011;66420;50.246;14.320;2023-02-03T12:55:14;2.50;;;0.90;;
77350;SDS011;66420;50.246;14.320;2023-02-03T12:58:31;3.65;;;0.90;;
77350;SDS011;66420;50.246;14.320;2023-02-03T13:01:21;0.95;;;0.57;;
77350;SDS011;66420;50.246;14.320;2023-02-03T13:07:39;0.65;;;0.50;;
77350;SDS011;66420;50.246;14.320;2023-02-03T13:10:34;1.27;;;0.63;;
77350;SDS011;66420;50.246;14.320;2023-02-03T13:13:32;1.52;;;0.60;;
77350;SDS011;66420;50.246;14.320;2023-02-03T13:16:28;1.17;;;0.60;;
77350;SDS011;66420;50.246;14.320;2023-02-03T13:19:23;2.42;;;0.93;;
77350;SDS011;66420;50.246;14.320;2023-02-03T13:22:13;0.80;;;0.50;;
77350;SDS011;66420;50.246;14.320;2023-02-03T13:25:08;0.95;;;0.50;;
77350;SDS011;66420;50.246;14.320;2023-02-03T13:28:05;0.57;;;0.40;;
77350;SDS011;66420;50.246;14.320;2023-02-03T13:33:53;2.55;;;0.50;;
77350;SDS011;66420;50.246;14.320;2023-02-03T13:42:27;1.77;;;0.55;;
77350;SDS011;66420;50.246;14.320;2023-02-03T13:48:32;5.28;;;2.28;;
77350;SDS011;66420;50.246;14.320;2023-02-03T13:54:35;1.45;;;0.60;;
77350;SDS011;66420;50.246;14.320;2023-02-03T13:57:33;0.93;;;0.60;;
77350;SDS011;66420;50.246;14.320;2023-02-03T14:06:58;0.98;;;0.60;;
77350;SDS011;66420;50.246;14.320;2023-02-03T14:12:21;0.80;;;0.60;;
77350;SDS011;66420;50.246;14.320;2023-02-03T14:15:26;3.15;;;1.20;;
77350;SDS011;66420;50.246;14.320;2023-02-03T14:21:36;1.80;;;0.70;;
77350;SDS011;66420;50.246;14.320;2023-02-03T14:24:29;0.65;;;0.50;;
77350;SDS011;66420;50.246;14.320;2023-02-03T14:27:26;0.93;;;0.60;;
77350;SDS011;66420;50.246;14.320;2023-02-03T14:30:14;1.50;;;0.52;;
77350;SDS011;66420;50.246;14.320;2023-02-03T14:33:02;1.50;;;0.70;;
77350;SDS011;66420;50.246;14.320;2023-02-03T14:35:47;1.17;;;0.60;;
77350;SDS011;66420;50.246;14.320;2023-02-03T14:38:31;0.50;;;0.40;;
77350;SDS011;66420;50.246;14.320;2023-02-03T14:41:17;0.57;;;0.40;;
77350;SDS011;66420;50.246;14.320;2023-02-03T14:44:20;1.10;;;0.55;;
77350;SDS011;66420;50.246;14.320;2023-02-03T14:56:26;1.35;;;0.60;;
77350;SDS011;66420;50.246;14.320;2023-02-03T15:00:11;2.88;;;1.33;;
77350;SDS011;66420;50.246;14.320;2023-02-03T15:06:02;1.42;;;0.77;;
77350;SDS011;66420;50.246;14.320;2023-02-03T15:08:48;2.88;;;1.05;;
77350;SDS011;66420;50.246;14.320;2023-02-03T15:11:41;3.28;;;1.27;;
77350;SDS011;66420;50.246;14.320;2023-02-03T15:14:28;3.78;;;1.30;;
77350;SDS011;66420;50.246;14.320;2023-02-03T15:20:31;4.03;;;0.90;;
77350;SDS011;66420;50.246;14.320;2023-02-03T15:23:18;5.07;;;1.05;;
77350;SDS011;66420;50.246;14.320;2023-02-03T15:26:11;3.80;;;1.40;;
77350;SDS011;66420;50.246;14.320;2023-02-03T15:28:58;4.43;;;1.10;;
77350;SDS011;66420;50.246;14.320;2023-02-03T15:31:45;7.47;;;1.30;;
77350;SDS011;66420;50.246;14.320;2023-02-03T15:37:28;7.03;;;1.42;;
77350;SDS011;66420;50.246;14.320;2023-02-03T15:40:19;7.10;;;1.63;;
77350;SDS011;66420;50.246;14.320;2023-02-03T15:49:01;6.45;;;1.98;;
77350;SDS011;66420;50.246;14.320;2023-02-03T15:54:45;13.80;;;2.35;;
77350;SDS011;66420;50.246;14.320;2023-02-03T15:57:36;9.32;;;1.83;;
77350;SDS011;66420;50.246;14.320;2023-02-03T16:00:29;5.75;;;1.27;;
77350;SDS011;66420;50.246;14.320;2023-02-03T16:03:17;11.27;;;2.50;;
77350;SDS011;66420;50.246;14.320;2023-02-03T16:06:10;10.98;;;2.13;;
77350;SDS011;66420;50.246;14.320;2023-02-03T16:09:02;9.50;;;1.58;;
77350;SDS011;66420;50.246;14.320;2023-02-03T16:11:47;9.23;;;1.30;;
77350;SDS011;66420;50.246;14.320;2023-02-03T16:14:32;3.85;;;1.30;;
77350;SDS011;66420;50.246;14.320;2023-02-03T16:20:17;7.20;;;1.17;;
77350;SDS011;66420;50.246;14.320;2023-02-03T16:23:18;6.03;;;1.40;;
77350;SDS011;66420;50.246;14.320;2023-02-03T16:26:15;5.15;;;1.63;;
77350;SDS011;66420;50.246;14.320;2023-02-03T16:32:16;4.50;;;1.10;;
77350;SDS011;66420;50.246;14.320;2023-02-03T16:35:21;6.93;;;1.15;;
77350;SDS011;66420;50.246;14.320;2023-02-03T16:38:24;4.40;;;1.00;;
77350;SDS011;66420;50.246;14.320;2023-02-03T16:41:28;5.20;;;1.23;;
77350;SDS011;66420;50.246;14.320;2023-02-03T16:44:34;7.10;;;1.33;;
77350;SDS011;66420;50.246;14.320;2023-02-03T16:47:37;5.90;;;1.38;;
77350;SDS011;66420;50.246;14.320;2023-02-03T16:50:41;7.68;;;1.30;;
77350;SDS011;66420;50.246;14.320;2023-02-03T16:53:33;9.60;;;1.90;;
77350;SDS011;66420;50.246;14.320;2023-02-03T16:56:21;6.38;;;1.63;;
77350;SDS011;66420;50.246;14.320;2023-02-03T16:59:06;6.25;;;1.85;;
77350;SDS011;66420;50.246;14.320;2023-02-03T17:01:51;16.98;;;5.18;;
77350;SDS011;66420;50.246;14.320;2023-02-03T17:04:42;7.32;;;1.92;;
77350;SDS011;66420;50.246;14.320;2023-02-03T17:07:26;8.25;;;1.90;;
77350;SDS011;66420;50.246;14.320;2023-02-03T17:10:11;8.05;;;1.52;;
77350;SDS011;66420;50.246;14.320;2023-02-03T17:12:56;7.55;;;1.58;;
77350;SDS011;66420;50.246;14.320;2023-02-03T17:15:42;8.82;;;2.30;;
77350;SDS011;66420;50.246;14.320;2023-02-03T17:18:33;5.18;;;1.58;;
77350;SDS011;66420;50.246;14.320;2023-02-03T17:21:19;10.43;;;2.35;;
77350;SDS011;66420;50.246;14.320;2023-02-03T17:24:06;12.10;;;2.65;;
77350;SDS011;66420;50.246;14.320;2023-02-03T17:26:51;8.73;;;2.05;;
77350;SDS011;66420;50.246;14.320;2023-02-03T17:29:37;10.23;;;2.50;;
77350;SDS011;66420;50.246;14.320;2023-02-03T17:32:25;10.10;;;1.85;;
77350;SDS011;66420;50.246;14.320;2023-02-03T17:35:10;9.90;;;2.15;;
77350;SDS011;66420;50.246;14.320;2023-02-03T17:37:58;8.02;;;1.88;;
77350;SDS011;66420;50.246;14.320;2023-02-03T17:40:42;13.25;;;2.85;;
77350;SDS011;66420;50.246;14.320;2023-02-03T17:43:27;9.80;;;2.33;;
77350;SDS011;66420;50.246;14.320;2023-02-03T17:46:17;13.23;;;2.22;;
77350;SDS011;66420;50.246;14.320;2023-02-03T17:49:03;13.23;;;2.72;;
77350;SDS011;66420;50.246;14.320;2023-02-03T17:51:48;8.07;;;2.60;;
77350;SDS011;66420;50.246;14.320;2023-02-03T17:54:32;16.20;;;4.70;;
77350;SDS011;66420;50.246;14.320;2023-02-03T17:57:17;15.57;;;7.35;;
77350;SDS011;66420;50.246;14.320;2023-02-03T18:00:02;11.13;;;3.90;;
77350;SDS011;66420;50.246;14.320;2023-02-03T18:02:50;13.75;;;4.13;;
77350;SDS011;66420;50.246;14.320;2023-02-03T18:05:35;11.20;;;3.15;;
77350;SDS011;66420;50.246;14.320;2023-02-03T18:08:21;9.75;;;3.03;;
77350;SDS011;66420;50.246;14.320;2023-02-03T18:11:05;11.73;;;2.92;;
77350;SDS011;66420;50.246;14.320;2023-02-03T18:13:52;13.23;;;3.13;;
77350;SDS011;66420;50.246;14.320;2023-02-03T18:16:36;13.57;;;3.10;;
77350;SDS011;66420;50.246;14.320;2023-02-03T18:19:21;12.82;;;3.88;;
77350;SDS011;66420;50.246;14.320;2023-02-03T18:22:06;13.93;;;3.85;;
77350;SDS011;66420;50.246;14.320;2023-02-03T18:24:51;9.98;;;3.50;;
77350;SDS011;66420;50.246;14.320;2023-02-03T18:27:36;10.00;;;4.25;;
77350;SDS011;66420;50.246;14.320;2023-02-03T18:30:21;10.85;;;3.95;;
77350;SDS011;66420;50.246;14.320;2023-02-03T18:33:05;13.93;;;3.90;;
77350;SDS011;66420;50.246;14.320;2023-02-03T18:35:49;12.18;;;3.97;;
77350;SDS011;66420;50.246;14.320;2023-02-03T18:38:34;11.93;;;3.03;;
77350;SDS011;66420;50.246;14.320;2023-02-03T18:41:21;10.10;;;2.20;;
77350;SDS011;66420;50.246;14.320;2023-02-03T18:44:07;9.25;;;2.00;;
77350;SDS011;66420;50.246;14.320;2023-02-03T18:46:52;14.23;;;2.28;;
77350;SDS011;66420;50.246;14.320;2023-02-03T18:49:38;9.43;;;2.15;;
77350;SDS011;66420;50.246;14.320;2023-02-03T18:52:24;8.75;;;1.40;;
77350;SDS011;66420;50.246;14.320;2023-02-03T18:55:08;6.80;;;1.42;;
77350;SDS011;66420;50.246;14.320;2023-02-03T18:57:52;17.38;;;2.13;;
77350;SDS011;66420;50.246;14.320;2023-02-03T19:00:37;12.02;;;2.92;;
77350;SDS011;66420;50.246;14.320;2023-02-03T19:03:23;10.30;;;2.20;;
77350;SDS011;66420;50.246;14.320;2023-02-03T19:06:10;9.45;;;1.92;;
77350;SDS011;66420;50.246;14.320;2023-02-03T19:08:55;8.63;;;2.30;;
77350;SDS011;66420;50.246;14.320;2023-02-03T19:11:39;8.88;;;2.17;;
77350;SDS011;66420;50.246;14.320;2023-02-03T19:14:24;9.88;;;1.92;;
77350;SDS011;66420;50.246;14.320;2023-02-03T19:17:08;7.60;;;1.90;;
77350;SDS011;66420;50.246;14.320;2023-02-03T19:19:53;9.07;;;2.22;;
77350;SDS011;66420;50.246;14.320;2023-02-03T19:22:38;6.05;;;1.65;;
77350;SDS011;66420;50.246;14.320;2023-02-03T19:25:22;19.35;;;2.50;;
77350;SDS011;66420;50.246;14.320;2023-02-03T19:28:08;14.35;;;2.08;;
77350;SDS011;66420;50.246;14.320;2023-02-03T19:30:52;8.75;;;2.05;;
77350;SDS011;66420;50.246;14.320;2023-02-03T19:33:37;6.88;;;2.38;;
77350;SDS011;66420;50.246;14.320;2023-02-03T19:36:22;13.20;;;2.47;;
77350;SDS011;66420;50.246;14.320;2023-02-03T19:39:06;14.55;;;2.03;;
77350;SDS011;66420;50.246;14.320;2023-02-03T19:41:51;9.63;;;1.92;;